»·PEaware :: N622SB KBOI-KTUS

N622SB :: KBOI-KTUS

FLIGHT INFORMATION

Flight Status: Arrived
Operator: Privately registered:
United States
More flights under this callsign
Pilot: Simon B. (27931)
Aircraft: Unknown
(/L)
More flights by this aircraft type
Origin: KBOI Boise Air Terminal/Gowen
United States
Destination: KTUS Tucson Intl
United States
More flights between these airports :: More routes between these airports
Route: +BOI3 ROARR LYONS CRITO Q73 WINEN Q35 CORKR DRK J11 PXR DINGO5
File this flight plan on PilotEdge
Remarks:
Altitude:
(Current/Filed)
37,000ft
Speed:
(Current/Filed)
350kts
Departed: 14-Mar-20 01:14 PM
Arrived: 14-Mar-20 03:45 PM
Distance/Time
Traveled:
0nm/2:31
Distance/Time
To Go:
Arrived

Flight Plot

Page will automatically refresh every two minutes.


Map Options




Map Legend


Flown Route
Filed Route
Departure Airport
Arrival Airport
Navaid (VOR, NDB)
Fix

Horizontal Profiles

Position Reports

Time Latitude Longitude Heading Altitude Ground
Speed
14-Mar-20 12:50 43.570038 -116.226048 184 2876ft 0kts
14-Mar-20 12:51 43.570038 -116.226048 184 2876ft 0kts
14-Mar-20 12:52 43.570038 -116.226048 184 2876ft 0kts
14-Mar-20 12:53 43.570038 -116.226048 184 2876ft 0kts
14-Mar-20 12:54 43.570038 -116.226048 184 2876ft 0kts
14-Mar-20 12:55 43.570038 -116.226048 184 2876ft 0kts
14-Mar-20 12:56 43.570038 -116.226048 184 2876ft 0kts
14-Mar-20 12:57 43.570038 -116.226048 184 2876ft 0kts
14-Mar-20 12:58 43.570038 -116.226048 184 2876ft 0kts
14-Mar-20 12:59 43.570035 -116.226048 184 2876ft 0kts
14-Mar-20 13:00 43.570031 -116.226049 184 2876ft 0kts
14-Mar-20 13:01 43.570028 -116.226049 184 2876ft 0kts
14-Mar-20 13:02 43.570024 -116.226049 184 2876ft 0kts
14-Mar-20 13:03 43.570022 -116.226050 184 2876ft 0kts
14-Mar-20 13:04 43.570021 -116.226050 184 2876ft 0kts
14-Mar-20 13:05 43.570019 -116.226050 184 2876ft 0kts
14-Mar-20 13:06 43.569384 -116.228178 188 2876ft 3kts
14-Mar-20 13:07 43.567643 -116.225656 115 2876ft 17kts
14-Mar-20 13:08 43.565591 -116.219563 115 2876ft 17kts
14-Mar-20 13:09 43.563570 -116.213637 113 2876ft 17kts
14-Mar-20 13:10 43.561564 -116.207632 114 2876ft 17kts
14-Mar-20 13:11 43.559436 -116.202684 204 2876ft 6kts
14-Mar-20 13:12 43.558794 -116.203156 217 2876ft 13kts
14-Mar-20 13:13 43.561882 -116.212485 297 2876ft 103kts
14-Mar-20 13:14 43.578652 -116.271927 291 4751ft 204kts
14-Mar-20 13:15 43.603105 -116.353114 295 8314ft 246kts
14-Mar-20 13:16 43.643397 -116.438018 322 12024ft 303kts
14-Mar-20 13:17 43.718883 -116.393424 81 16423ft 342kts
14-Mar-20 13:18 43.683950 -116.284223 143 17040ft 304kts
14-Mar-20 13:19 43.631213 -116.196053 135 19121ft 317kts
14-Mar-20 13:20 43.574610 -116.097963 142 21783ft 333kts
14-Mar-20 13:21 43.522947 -115.989013 129 24922ft 329kts
14-Mar-20 13:22 43.479186 -115.876110 129 27040ft 340kts
14-Mar-20 13:23 43.438191 -115.757620 121 29051ft 348kts
14-Mar-20 13:24 43.400434 -115.633794 124 30528ft 350kts
14-Mar-20 13:25 43.363130 -115.507296 128 31561ft 358kts
14-Mar-20 13:26 43.307579 -115.406758 143 33455ft 321kts
14-Mar-20 13:27 43.248366 -115.317855 147 34945ft 309kts
14-Mar-20 13:28 43.188709 -115.236206 148 36329ft 301kts
14-Mar-20 13:29 43.126969 -115.155465 148 36900ft 319kts
14-Mar-20 13:30 43.059057 -115.067886 147 36896ft 349kts
14-Mar-20 13:31 42.986303 -114.973897 147 36896ft 369kts
14-Mar-20 13:32 42.910523 -114.876121 146 36896ft 375kts
14-Mar-20 13:33 42.835510 -114.779451 147 36896ft 367kts
14-Mar-20 13:34 42.754018 -114.711640 179 36899ft 327kts
14-Mar-20 13:35 42.664946 -114.700201 186 36898ft 319kts
14-Mar-20 13:36 42.576406 -114.695019 186 36898ft 318kts
14-Mar-20 13:37 42.487919 -114.690639 186 36898ft 318kts
14-Mar-20 13:38 42.399454 -114.686459 187 36897ft 318kts
14-Mar-20 13:39 42.310950 -114.682349 187 36897ft 318kts
14-Mar-20 13:40 42.222421 -114.678265 187 36895ft 318kts
14-Mar-20 13:41 42.134011 -114.674209 187 36893ft 318kts
14-Mar-20 13:42 42.045889 -114.670183 187 36890ft 318kts
14-Mar-20 13:43 41.957197 -114.666143 187 36887ft 318kts
14-Mar-20 13:44 41.868989 -114.662140 187 36884ft 318kts
14-Mar-20 13:45 41.780397 -114.658126 187 36881ft 318kts
14-Mar-20 13:46 41.691774 -114.654121 187 36878ft 318kts
14-Mar-20 13:47 41.603171 -114.650128 187 36875ft 318kts
14-Mar-20 13:48 41.514537 -114.646145 187 36872ft 318kts
14-Mar-20 13:49 41.425899 -114.642171 187 36869ft 318kts
14-Mar-20 13:50 41.337204 -114.638203 187 36866ft 318kts
14-Mar-20 13:51 41.248699 -114.634256 187 36864ft 318kts
14-Mar-20 13:52 41.160131 -114.630320 187 36862ft 318kts
14-Mar-20 13:53 41.071663 -114.626400 187 36860ft 318kts
14-Mar-20 13:54 40.983168 -114.622489 187 36858ft 318kts
14-Mar-20 13:55 40.894688 -114.618593 187 36857ft 318kts
14-Mar-20 13:56 40.806127 -114.614700 187 36856ft 318kts
14-Mar-20 13:57 40.717477 -114.610809 187 36861ft 318kts
14-Mar-20 13:58 40.629178 -114.606943 187 36863ft 318kts
14-Mar-20 13:59 40.540570 -114.603076 187 36868ft 318kts
14-Mar-20 14:00 40.452031 -114.599223 187 36871ft 318kts
14-Mar-20 14:01 40.363632 -114.595388 187 36875ft 318kts
14-Mar-20 14:02 40.275154 -114.591560 187 36881ft 318kts
14-Mar-20 14:03 40.186714 -114.587742 187 36888ft 318kts
14-Mar-20 14:04 40.098260 -114.583934 187 36895ft 318kts
14-Mar-20 14:05 40.009818 -114.580140 187 36903ft 318kts
14-Mar-20 14:06 39.921560 -114.576365 187 36910ft 318kts
14-Mar-20 14:07 39.833017 -114.572577 187 36917ft 318kts
14-Mar-20 14:09 39.744414 -114.568801 187 36923ft 318kts
14-Mar-20 14:10 39.655715 -114.565035 187 36929ft 319kts
14-Mar-20 14:11 39.566949 -114.561269 187 36933ft 319kts
14-Mar-20 14:12 39.478182 -114.557517 187 36938ft 319kts
14-Mar-20 14:13 39.389280 -114.553764 187 36943ft 319kts
14-Mar-20 14:14 39.300226 -114.538102 168 36946ft 339kts
14-Mar-20 14:15 39.214930 -114.481248 160 36948ft 348kts
14-Mar-20 14:16 39.131418 -114.417478 159 36950ft 349kts
14-Mar-20 14:17 39.048425 -114.353086 158 36952ft 349kts
14-Mar-20 14:18 38.965246 -114.288460 158 36956ft 349kts
14-Mar-20 14:19 38.882130 -114.223993 158 36976ft 348kts
14-Mar-20 14:20 38.799109 -114.159755 158 36986ft 348kts
14-Mar-20 14:21 38.716100 -114.095699 158 36994ft 348kts
14-Mar-20 14:22 38.632906 -114.031670 158 37004ft 347kts
14-Mar-20 14:23 38.550144 -113.968145 158 37011ft 346kts
14-Mar-20 14:24 38.467733 -113.905061 158 37017ft 346kts
14-Mar-20 14:24 38.398682 -113.852342 157 37026ft 346kts
14-Mar-20 14:26 38.302432 -113.779048 157 37037ft 346kts
14-Mar-20 14:27 38.219657 -113.716199 157 37037ft 346kts
14-Mar-20 14:27 38.150542 -113.663840 158 37038ft 346kts
14-Mar-20 14:28 38.067742 -113.601274 158 37043ft 346kts
14-Mar-20 14:30 37.971272 -113.528585 158 37053ft 346kts
14-Mar-20 14:30 37.900957 -113.481468 162 37057ft 342kts
14-Mar-20 14:31 37.815380 -113.428436 162 37061ft 342kts
14-Mar-20 14:33 37.715043 -113.367235 162 37065ft 343kts
14-Mar-20 14:33 37.643466 -113.323785 162 37072ft 343kts
14-Mar-20 14:34 37.557267 -113.271621 162 37073ft 343kts
14-Mar-20 14:35 37.470982 -113.219548 162 37077ft 344kts
14-Mar-20 14:36 37.384524 -113.167513 162 37083ft 344kts
14-Mar-20 14:37 37.297997 -113.115569 162 37091ft 345kts
14-Mar-20 14:38 37.211367 -113.063694 162 37107ft 345kts
14-Mar-20 14:39 37.124961 -113.012087 162 37118ft 345kts
14-Mar-20 14:40 37.038202 -112.960405 162 37139ft 345kts
14-Mar-20 14:41 36.951268 -112.908754 162 37147ft 346kts
14-Mar-20 14:42 36.864155 -112.857125 162 37143ft 347kts
14-Mar-20 14:43 36.776867 -112.805520 162 37143ft 347kts
14-Mar-20 14:45 36.674613 -112.745238 162 37135ft 348kts
14-Mar-20 14:45 36.601666 -112.702337 162 37127ft 349kts
14-Mar-20 14:46 36.513754 -112.650757 162 37114ft 349kts
14-Mar-20 14:47 36.425619 -112.599174 162 37097ft 350kts
14-Mar-20 14:48 36.337338 -112.547629 162 37077ft 351kts
14-Mar-20 14:49 36.248944 -112.496154 162 37060ft 351kts
14-Mar-20 14:50 36.160286 -112.444641 162 37042ft 352kts
14-Mar-20 14:51 36.069413 -112.408662 182 37027ft 336kts
14-Mar-20 14:52 35.976542 -112.408091 188 37019ft 332kts
14-Mar-20 14:53 35.884129 -112.412478 188 37034ft 332kts
14-Mar-20 14:54 35.791871 -112.417609 188 37050ft 331kts
14-Mar-20 14:55 35.699628 -112.422913 188 37080ft 331kts
14-Mar-20 14:56 35.607485 -112.428253 189 37116ft 331kts
14-Mar-20 14:57 35.516105 -112.433550 189 37201ft 329kts
14-Mar-20 14:58 35.424276 -112.438891 189 37205ft 330kts
14-Mar-20 14:59 35.331970 -112.444233 189 37206ft 331kts
14-Mar-20 15:00 35.240591 -112.449509 189 37206ft 331kts
14-Mar-20 15:01 35.148155 -112.454832 189 37204ft 331kts
14-Mar-20 15:02 35.056099 -112.460120 189 37202ft 330kts
14-Mar-20 15:03 34.964136 -112.465394 189 37200ft 330kts
14-Mar-20 15:04 34.872281 -112.470649 189 37198ft 330kts
14-Mar-20 15:05 34.780484 -112.475895 189 37198ft 330kts
14-Mar-20 15:06 34.688079 -112.468518 174 37199ft 342kts
14-Mar-20 15:07 34.596200 -112.435870 170 37198ft 345kts
14-Mar-20 15:08 34.504698 -112.399516 169 37198ft 346kts
14-Mar-20 15:09 34.413280 -112.362639 169 37195ft 346kts
14-Mar-20 15:10 34.321887 -112.325701 169 37189ft 346kts
14-Mar-20 15:11 34.230504 -112.288791 169 37182ft 346kts
14-Mar-20 15:12 34.139034 -112.251955 169 37174ft 346kts
14-Mar-20 15:13 34.047640 -112.215215 170 37168ft 346kts
14-Mar-20 15:14 33.956286 -112.178571 170 37166ft 346kts
14-Mar-20 15:16 33.849943 -112.136020 170 37159ft 346kts
14-Mar-20 15:16 33.773522 -112.105508 170 37153ft 346kts
14-Mar-20 15:17 33.682109 -112.069083 170 37149ft 346kts
14-Mar-20 15:18 33.590611 -112.032726 170 36965ft 351kts
14-Mar-20 15:19 33.493925 -111.994604 169 35509ft 377kts
14-Mar-20 15:20 33.391460 -111.967069 179 33726ft 382kts
14-Mar-20 15:21 33.286281 -111.953486 181 31729ft 378kts
14-Mar-20 15:22 33.183823 -111.941819 182 29728ft 355kts
14-Mar-20 15:23 33.086648 -111.931017 181 27727ft 348kts
14-Mar-20 15:24 32.991431 -111.920418 181 25729ft 333kts
14-Mar-20 15:25 32.900103 -111.904876 166 23730ft 340kts
14-Mar-20 15:26 32.816792 -111.850261 153 21737ft 337kts
14-Mar-20 15:27 32.740271 -111.788192 151 19741ft 330kts
14-Mar-20 15:28 32.665786 -111.726693 150 17742ft 320kts
14-Mar-20 15:29 32.595427 -111.668581 150 16665ft 295kts
14-Mar-20 15:30 32.547717 -111.593118 122 14778ft 296kts
14-Mar-20 15:31 32.500142 -111.516764 126 12892ft 283kts
14-Mar-20 15:32 32.448125 -111.451929 142 11002ft 268kts
14-Mar-20 15:33 32.397540 -111.388670 129 9108ft 249kts
14-Mar-20 15:34 32.371388 -111.324441 100 7995ft 199kts
14-Mar-20 15:35 32.349337 -111.266990 119 7137ft 191kts
14-Mar-20 15:36 32.326178 -111.214981 121 6975ft 167kts
14-Mar-20 15:37 32.300014 -111.160332 127 5663ft 183kts
14-Mar-20 15:38 32.270118 -111.120691 136 5490ft 149kts
14-Mar-20 15:39 32.241596 -111.086986 136 5341ft 147kts
14-Mar-20 15:40 32.212058 -111.052168 137 4856ft 149kts
14-Mar-20 15:41 32.183531 -111.018837 139 4172ft 137kts
14-Mar-20 15:42 32.158532 -110.989209 141 3484ft 123kts
14-Mar-20 15:43 32.135339 -110.961665 139 2927ft 120kts
14-Mar-20 15:44 32.115790 -110.939040 134 2593ft 17kts
14-Mar-20 15:45 32.116083 -110.937690 330 2593ft 14kts
14-Mar-20 15:46 32.118449 -110.940511 314 2593ft 9kts
14-Mar-20 15:47 32.120578 -110.943013 315 2593ft 12kts
14-Mar-20 15:48 32.123252 -110.946167 315 2593ft 14kts
14-Mar-20 15:49 32.126166 -110.946548 43 2593ft 15kts
14-Mar-20 15:50 32.128142 -110.943118 106 2593ft 2kts
14-Mar-20 15:51 32.128303 -110.942858 39 2593ft 0kts
14-Mar-20 15:52 32.128303 -110.942858 39 2593ft 0kts
14-Mar-20 15:53 43.570050 -116.226047 184 2871ft 0kts

Navigation Log

Ident Type
Flight plan parsing failed, navigation log unavailable